createdAt,value
2023-05-08T00:04:46.531Z,70.68
2023-05-08T00:09:50.030Z,70.87
2023-05-08T00:14:51.932Z,71.08
2023-05-08T00:19:53.721Z,71.39
2023-05-08T00:24:55.789Z,71.59
2023-05-08T00:29:58.174Z,71.87
2023-05-08T00:34:59.922Z,71.79
2023-05-08T00:40:01.976Z,72.28
2023-05-08T00:45:05.133Z,72.42
2023-05-08T00:50:07.621Z,72.63
2023-05-08T00:55:09.609Z,72.29
2023-05-08T01:00:12.929Z,71.90
2023-05-08T01:05:14.985Z,71.74
2023-05-08T01:10:16.962Z,71.49
2023-05-08T01:15:23.131Z,71.23
2023-05-08T01:20:49.333Z,70.90
2023-05-08T01:25:56.942Z,70.59
2023-05-08T01:31:24.016Z,70.52
2023-05-08T01:36:55.927Z,70.18
2023-05-08T01:42:05.860Z,70.10
2023-05-08T01:47:11.446Z,70.00
2023-05-08T01:52:23.663Z,69.57
2023-05-08T01:57:28.937Z,69.50
2023-05-08T02:02:33.266Z,69.44
2023-05-08T02:07:38.173Z,69.14
2023-05-08T02:12:41.602Z,68.76
2023-05-08T02:17:46.940Z,68.30
2023-05-08T02:22:51.429Z,68.23
2023-05-08T02:27:55.208Z,68.09
2023-05-08T02:33:00.602Z,68.18
2023-05-08T02:38:10.508Z,68.40
2023-05-08T02:43:12.606Z,68.16
2023-05-08T02:48:38.273Z,68.03
2023-05-08T02:54:03.231Z,67.94
2023-05-08T02:59:19.044Z,67.81
2023-05-08T03:04:34.614Z,67.68
2023-05-08T03:09:50.520Z,67.86
2023-05-08T03:15:06.713Z,67.85
2023-05-08T03:20:14.900Z,67.84
2023-05-08T03:25:19.639Z,68.00
2023-05-08T03:30:23.659Z,68.05
2023-05-08T03:35:37.458Z,68.24
2023-05-08T03:40:42.516Z,68.11
2023-05-08T03:45:46.218Z,68.06
2023-05-08T03:50:49.194Z,68.04
2023-05-08T03:55:51.606Z,67.65
2023-05-08T04:01:11.723Z,67.46
2023-05-08T04:06:30.753Z,67.50
2023-05-08T04:11:48.009Z,67.05
2023-05-08T04:16:53.572Z,66.83
2023-05-08T04:21:59.928Z,67.03
2023-05-08T04:27:03.323Z,67.06
2023-05-08T04:32:07.096Z,66.60
2023-05-08T04:37:09.293Z,66.36
2023-05-08T04:42:11.313Z,66.16
2023-05-08T04:47:15.908Z,65.62
2023-05-08T04:52:17.817Z,64.92
2023-05-08T04:57:20.011Z,64.56
2023-05-08T05:02:22.296Z,62.69
2023-05-08T05:07:24.710Z,61.75
2023-05-08T05:12:26.547Z,59.38
2023-05-08T05:17:31.198Z,57.74
2023-05-08T05:22:33.646Z,56.99
2023-05-08T05:27:36.916Z,56.90
2023-05-08T05:32:39.328Z,57.63
2023-05-08T05:37:44.698Z,58.20
2023-05-08T05:42:51.093Z,56.76
2023-05-08T05:47:55.860Z,56.57
2023-05-08T05:52:58.684Z,57.48
2023-05-08T05:58:01.136Z,56.81
2023-05-08T06:03:03.934Z,56.58
2023-05-08T06:08:06.494Z,56.75
2023-05-08T06:13:09.719Z,56.69
2023-05-08T06:18:12.042Z,55.53
2023-05-08T06:23:14.309Z,54.83
2023-05-08T06:28:16.067Z,54.41
2023-05-08T06:33:18.534Z,53.88
2023-05-08T06:38:20.687Z,54.43
2023-05-08T06:43:22.414Z,54.28
2023-05-08T06:48:28.921Z,54.53
2023-05-08T06:53:31.132Z,54.96
2023-05-08T06:58:32.998Z,55.71
2023-05-08T07:03:35.013Z,56.13
2023-05-08T07:08:37.510Z,53.90
2023-05-08T07:13:42.100Z,50.00
2023-05-08T07:18:44.174Z,49.00
2023-05-08T07:23:46.157Z,50.62
2023-05-08T07:28:48.535Z,50.68
2023-05-08T07:33:50.465Z,51.20
2023-05-08T07:38:52.269Z,51.10
2023-05-08T07:43:53.970Z,50.77
2023-05-08T07:48:55.726Z,50.94
2023-05-08T07:53:57.430Z,50.70
2023-05-08T07:58:59.272Z,49.62
2023-05-08T08:04:01.091Z,49.02
2023-05-08T08:09:03.093Z,48.17
2023-05-08T08:14:04.776Z,48.07
2023-05-08T08:19:06.826Z,48.26
2023-05-08T08:24:08.531Z,47.66
2023-05-08T08:29:10.204Z,46.40
2023-05-08T08:34:12.488Z,46.79
2023-05-08T08:39:15.441Z,47.32
2023-05-08T08:44:17.533Z,46.34
2023-05-08T08:49:36.024Z,46.27
2023-05-08T08:54:41.325Z,46.29
2023-05-08T08:59:44.640Z,45.93
2023-05-08T09:04:50.058Z,45.64
2023-05-08T09:09:52.732Z,45.80
2023-05-08T09:14:54.385Z,45.47
2023-05-08T09:19:56.609Z,45.11
2023-05-08T09:24:59.385Z,44.75
2023-05-08T09:30:10.519Z,43.56
2023-05-08T09:35:12.974Z,43.35
2023-05-08T09:40:15.831Z,42.01
2023-05-08T09:45:32.016Z,41.03
2023-05-08T09:50:34.043Z,41.37
2023-05-08T09:55:48.534Z,42.27
2023-05-08T10:00:51.249Z,42.51
2023-05-08T10:05:53.037Z,43.03
2023-05-08T10:11:12.881Z,42.98
2023-05-08T10:16:17.046Z,42.77
2023-05-08T10:21:20.423Z,42.48
2023-05-08T10:26:31.738Z,43.04
2023-05-08T10:31:38.737Z,41.63
2023-05-08T10:36:41.067Z,41.07
2023-05-08T10:41:43.412Z,40.71
2023-05-08T10:47:27.181Z,41.12
2023-05-08T10:52:42.352Z,41.76
2023-05-08T10:58:17.360Z,42.30
2023-05-08T11:03:30.686Z,42.97
2023-05-08T11:08:43.978Z,42.23
2023-05-08T11:13:54.450Z,42.78
2023-05-08T11:19:15.879Z,43.48
2023-05-08T11:24:17.656Z,43.35
2023-05-08T11:29:19.346Z,44.64
2023-05-08T11:34:43.407Z,45.00
2023-05-08T11:39:46.458Z,44.59
2023-05-08T11:44:48.190Z,43.83
2023-05-08T11:49:50.108Z,43.04
2023-05-08T11:54:52.131Z,42.54
2023-05-08T11:59:53.779Z,42.90
2023-05-08T12:04:55.574Z,42.66
2023-05-08T12:09:57.689Z,42.80
2023-05-08T12:14:59.342Z,43.03
2023-05-08T12:20:16.307Z,43.46
2023-05-08T12:25:19.008Z,42.85
2023-05-08T12:30:20.894Z,42.99
2023-05-08T12:35:24.158Z,43.01
2023-05-08T12:40:28.719Z,42.54
2023-05-08T12:45:33.874Z,42.50
2023-05-08T12:50:36.466Z,42.05
2023-05-08T12:55:39.767Z,42.82
2023-05-08T13:00:51.868Z,43.04
2023-05-08T13:05:55.904Z,42.34
2023-05-08T13:10:57.688Z,42.30
2023-05-08T13:16:06.541Z,41.62
2023-05-08T13:21:08.419Z,41.91
2023-05-08T13:26:10.439Z,42.38
2023-05-08T13:31:12.159Z,42.39
2023-05-08T13:36:14.018Z,43.15
2023-05-08T13:41:16.126Z,42.42
2023-05-08T13:46:18.122Z,42.43
2023-05-08T13:51:19.953Z,42.20
2023-05-08T13:56:22.478Z,42.93
2023-05-08T14:01:26.807Z,42.24
2023-05-08T14:06:29.539Z,42.26
2023-05-08T14:11:31.430Z,42.33
2023-05-08T14:16:33.480Z,42.02
2023-05-08T14:21:36.760Z,41.50
2023-05-08T14:26:38.975Z,41.12
2023-05-08T14:31:41.403Z,42.27
2023-05-08T14:36:43.199Z,42.75
2023-05-08T14:41:55.288Z,43.42
2023-05-08T14:47:06.877Z,43.00
2023-05-08T14:52:08.570Z,42.12
2023-05-08T14:57:10.559Z,42.17
2023-05-08T15:02:12.735Z,42.28
2023-05-08T15:07:14.459Z,41.81
2023-05-08T15:12:16.214Z,41.58
2023-05-08T15:17:17.879Z,41.57
2023-05-08T15:22:19.608Z,41.78
2023-05-08T15:27:21.424Z,42.47
2023-05-08T15:32:23.367Z,43.06
2023-05-08T15:37:25.080Z,43.56
2023-05-08T15:42:26.867Z,42.94
2023-05-08T15:47:28.609Z,43.47
2023-05-08T15:52:30.426Z,43.03
2023-05-08T15:57:32.204Z,42.90
2023-05-08T16:02:33.964Z,42.91
2023-05-08T16:07:35.865Z,42.64
2023-05-08T16:12:37.727Z,43.48
2023-05-08T16:17:39.508Z,44.20
2023-05-08T16:22:41.262Z,45.04
2023-05-08T16:27:42.920Z,44.04
2023-05-08T16:43:31.634Z,44.63
2023-05-08T16:48:33.678Z,44.55
2023-05-08T16:53:35.759Z,44.42
2023-05-08T16:58:37.491Z,43.75
2023-05-08T17:03:39.515Z,44.03
2023-05-08T17:08:41.281Z,45.03
2023-05-08T17:13:43.215Z,45.65
2023-05-08T17:18:45.074Z,45.92
2023-05-08T17:23:46.705Z,46.60
2023-05-08T17:28:48.393Z,47.05
2023-05-08T17:33:50.278Z,47.34
2023-05-08T17:38:52.064Z,47.38
2023-05-08T17:43:54.274Z,47.54
2023-05-08T17:48:55.971Z,48.10
2023-05-08T17:53:57.617Z,48.71
2023-05-08T17:58:59.554Z,49.24
2023-05-08T18:04:01.674Z,49.75
2023-05-08T18:09:03.650Z,49.93
2023-05-08T18:14:05.447Z,50.40
2023-05-08T18:19:07.214Z,51.02
2023-05-08T18:24:08.872Z,51.25
2023-05-08T18:29:11.129Z,51.70
2023-05-08T18:34:12.930Z,52.12
2023-05-08T18:39:14.596Z,52.53
2023-05-08T18:44:16.904Z,53.06
2023-05-08T18:49:18.790Z,53.48
2023-05-08T18:54:20.484Z,54.00
2023-05-08T18:59:22.257Z,54.31
2023-05-08T19:04:24.048Z,54.73
2023-05-08T19:09:25.673Z,55.04
2023-05-08T19:14:27.418Z,55.56
2023-05-08T19:19:29.624Z,55.79
2023-05-08T19:24:31.959Z,56.23
2023-05-08T19:29:35.372Z,56.70
2023-05-08T19:34:39.444Z,57.04
2023-05-08T19:39:41.207Z,57.29
2023-05-08T19:44:42.933Z,57.91
2023-05-08T19:49:44.793Z,58.11
2023-05-08T19:54:46.989Z,58.79
2023-05-08T19:59:49.014Z,59.34
2023-05-08T20:05:14.228Z,59.73
2023-05-08T20:10:12.671Z,60.09
2023-05-08T20:15:14.722Z,60.36
2023-05-08T20:20:17.046Z,60.60
2023-05-08T20:25:19.214Z,60.77
2023-05-08T20:30:22.830Z,60.99
2023-05-08T20:35:25.657Z,61.19
2023-05-08T20:40:27.682Z,61.71
2023-05-08T20:45:29.459Z,62.32
2023-05-08T20:50:31.505Z,62.69
2023-05-08T20:55:33.331Z,63.03
2023-05-08T21:00:35.636Z,63.35
2023-05-08T21:05:37.305Z,63.65
2023-05-08T21:10:41.386Z,63.89
2023-05-08T21:15:44.871Z,64.14
2023-05-08T21:20:50.347Z,64.55
2023-05-08T21:25:53.141Z,64.79
2023-05-08T21:30:54.818Z,64.94
2023-05-08T21:35:56.557Z,65.15
2023-05-08T21:41:05.365Z,65.41
2023-05-08T21:46:09.202Z,65.49
2023-05-08T21:51:12.942Z,65.77
2023-05-08T21:56:15.154Z,66.18
2023-05-08T22:01:17.552Z,66.25
2023-05-08T22:06:19.359Z,66.41
2023-05-08T22:11:22.269Z,66.76
2023-05-08T22:16:23.972Z,66.91
2023-05-08T22:21:29.531Z,67.15
2023-05-08T22:26:31.230Z,67.48
2023-05-08T22:31:32.982Z,67.50
2023-05-08T22:36:34.849Z,67.74
2023-05-08T22:41:36.663Z,67.75
2023-05-08T22:46:38.980Z,68.12
2023-05-08T22:51:41.319Z,68.11
2023-05-08T22:56:42.955Z,68.29
2023-05-08T23:01:44.726Z,68.55
2023-05-08T23:06:47.376Z,68.98
2023-05-08T23:11:50.023Z,68.80
2023-05-08T23:16:51.755Z,69.11
2023-05-08T23:21:53.689Z,69.26
2023-05-08T23:26:55.419Z,69.68
2023-05-08T23:31:59.554Z,69.56
2023-05-08T23:37:02.219Z,69.75
2023-05-08T23:42:04.481Z,69.86
2023-05-08T23:47:08.020Z,70.05
2023-05-08T23:52:11.120Z,70.05
2023-05-08T23:57:12.826Z,70.28
